sensor_id;sensor_type;location;lat;lon;timestamp;temperature;humidity
31747;DHT22;18319;48.974;8.462;2022-09-09T00:02:18;17.10;99.90
31747;DHT22;18319;48.974;8.462;2022-09-09T00:04:51;17.00;99.90
31747;DHT22;18319;48.974;8.462;2022-09-09T00:07:25;16.90;99.90
31747;DHT22;18319;48.974;8.462;2022-09-09T00:10:00;16.90;99.90
31747;DHT22;18319;48.974;8.462;2022-09-09T00:12:36;16.80;99.90
31747;DHT22;18319;48.974;8.462;2022-09-09T00:15:10;16.80;98.00
31747;DHT22;18319;48.974;8.462;2022-09-09T00:17:45;16.90;98.10
31747;DHT22;18319;48.974;8.462;2022-09-09T00:20:18;16.80;99.90
31747;DHT22;18319;48.974;8.462;2022-09-09T00:22:49;16.80;99.90
31747;DHT22;18319;48.974;8.462;2022-09-09T00:25:26;16.80;99.90
31747;DHT22;18319;48.974;8.462;2022-09-09T00:27:54;16.80;99.90
31747;DHT22;18319;48.974;8.462;2022-09-09T00:30:24;16.80;99.90
31747;DHT22;18319;48.974;8.462;2022-09-09T00:32:54;16.80;99.90
31747;DHT22;18319;48.974;8.462;2022-09-09T00:35:26;16.80;99.90
31747;DHT22;18319;48.974;8.462;2022-09-09T00:37:56;16.70;99.90
31747;DHT22;18319;48.974;8.462;2022-09-09T00:40:29;16.70;99.90
31747;DHT22;18319;48.974;8.462;2022-09-09T00:43:12;16.70;99.90
31747;DHT22;18319;48.974;8.462;2022-09-09T00:46:11;16.70;99.90
31747;DHT22;18319;48.974;8.462;2022-09-09T00:48:50;16.60;99.90
31747;DHT22;18319;48.974;8.462;2022-09-09T00:51:26;16.60;99.90
31747;DHT22;18319;48.974;8.462;2022-09-09T00:54:10;16.50;99.90
31747;DHT22;18319;48.974;8.462;2022-09-09T00:56:51;16.40;99.90
31747;DHT22;18319;48.974;8.462;2022-09-09T00:59:27;16.40;99.90
31747;DHT22;18319;48.974;8.462;2022-09-09T01:01:55;16.40;99.90
31747;DHT22;18319;48.974;8.462;2022-09-09T01:04:29;16.40;99.90
31747;DHT22;18319;48.974;8.462;2022-09-09T01:07:05;16.40;99.90
31747;DHT22;18319;48.974;8.462;2022-09-09T01:09:41;16.40;99.90
31747;DHT22;18319;48.974;8.462;2022-09-09T01:12:14;16.40;99.90
31747;DHT22;18319;48.974;8.462;2022-09-09T01:14:45;16.30;99.90
31747;DHT22;18319;48.974;8.462;2022-09-09T01:17:17;16.30;99.90
31747;DHT22;18319;48.974;8.462;2022-09-09T01:20:02;16.40;99.90
31747;DHT22;18319;48.974;8.462;2022-09-09T01:22:38;16.40;99.90
31747;DHT22;18319;48.974;8.462;2022-09-09T01:28:26;16.70;99.90
31747;DHT22;18319;48.974;8.462;2022-09-09T01:30:54;16.70;99.90
31747;DHT22;18319;48.974;8.462;2022-09-09T01:33:23;16.70;99.90
31747;DHT22;18319;48.974;8.462;2022-09-09T01:35:53;16.60;99.90
31747;DHT22;18319;48.974;8.462;2022-09-09T01:38:24;16.40;99.90
31747;DHT22;18319;48.974;8.462;2022-09-09T01:40:51;16.30;99.90
31747;DHT22;18319;48.974;8.462;2022-09-09T01:43:18;16.20;99.90
31747;DHT22;18319;48.974;8.462;2022-09-09T01:45:49;16.10;99.90
31747;DHT22;18319;48.974;8.462;2022-09-09T01:48:18;16.10;99.90
31747;DHT22;18319;48.974;8.462;2022-09-09T01:50:45;16.00;99.90
31747;DHT22;18319;48.974;8.462;2022-09-09T01:53:12;15.90;99.90
31747;DHT22;18319;48.974;8.462;2022-09-09T01:55:44;15.80;99.90
31747;DHT22;18319;48.974;8.462;2022-09-09T01:58:26;15.70;99.90
31747;DHT22;18319;48.974;8.462;2022-09-09T02:01:04;15.70;99.90
31747;DHT22;18319;48.974;8.462;2022-09-09T02:03:34;15.60;99.90
31747;DHT22;18319;48.974;8.462;2022-09-09T02:06:08;15.50;99.90
31747;DHT22;18319;48.974;8.462;2022-09-09T02:08:42;15.40;99.90
31747;DHT22;18319;48.974;8.462;2022-09-09T02:11:13;15.40;99.90
31747;DHT22;18319;48.974;8.462;2022-09-09T02:13:42;15.30;99.90
31747;DHT22;18319;48.974;8.462;2022-09-09T02:16:15;15.20;99.90
31747;DHT22;18319;48.974;8.462;2022-09-09T02:18:48;15.20;99.90
31747;DHT22;18319;48.974;8.462;2022-09-09T02:21:16;15.30;99.90
31747;DHT22;18319;48.974;8.462;2022-09-09T02:23:44;15.30;99.90
31747;DHT22;18319;48.974;8.462;2022-09-09T02:26:14;15.30;99.90
31747;DHT22;18319;48.974;8.462;2022-09-09T02:28:46;15.30;99.90
31747;DHT22;18319;48.974;8.462;2022-09-09T02:31:15;15.30;99.90
31747;DHT22;18319;48.974;8.462;2022-09-09T02:33:46;15.30;99.90
31747;DHT22;18319;48.974;8.462;2022-09-09T02:36:16;15.30;99.90
31747;DHT22;18319;48.974;8.462;2022-09-09T02:38:46;15.30;99.90
31747;DHT22;18319;48.974;8.462;2022-09-09T02:41:16;15.30;99.90
31747;DHT22;18319;48.974;8.462;2022-09-09T02:43:43;15.40;99.90
31747;DHT22;18319;48.974;8.462;2022-09-09T02:46:24;15.40;99.90
31747;DHT22;18319;48.974;8.462;2022-09-09T02:49:00;15.40;99.90
31747;DHT22;18319;48.974;8.462;2022-09-09T02:51:35;15.40;99.90
31747;DHT22;18319;48.974;8.462;2022-09-09T02:54:13;15.40;99.90
31747;DHT22;18319;48.974;8.462;2022-09-09T02:56:47;15.30;99.90
31747;DHT22;18319;48.974;8.462;2022-09-09T02:59:16;15.30;99.90
31747;DHT22;18319;48.974;8.462;2022-09-09T03:01:44;15.20;99.90
31747;DHT22;18319;48.974;8.462;2022-09-09T03:04:12;15.10;99.90
31747;DHT22;18319;48.974;8.462;2022-09-09T03:06:39;15.00;99.90
31747;DHT22;18319;48.974;8.462;2022-09-09T03:09:06;15.00;99.90
31747;DHT22;18319;48.974;8.462;2022-09-09T03:11:35;15.00;99.90
31747;DHT22;18319;48.974;8.462;2022-09-09T03:14:03;15.10;99.90
31747;DHT22;18319;48.974;8.462;2022-09-09T03:16:30;15.10;99.90
31747;DHT22;18319;48.974;8.462;2022-09-09T03:18:59;15.20;99.90
31747;DHT22;18319;48.974;8.462;2022-09-09T03:21:26;15.30;99.90
31747;DHT22;18319;48.974;8.462;2022-09-09T03:23:53;15.30;99.90
31747;DHT22;18319;48.974;8.462;2022-09-09T03:26:20;15.30;99.90
31747;DHT22;18319;48.974;8.462;2022-09-09T03:28:47;15.30;99.90
31747;DHT22;18319;48.974;8.462;2022-09-09T03:31:17;15.40;99.90
31747;DHT22;18319;48.974;8.462;2022-09-09T03:33:44;15.30;99.90
31747;DHT22;18319;48.974;8.462;2022-09-09T03:36:13;15.30;99.90
31747;DHT22;18319;48.974;8.462;2022-09-09T03:38:40;15.30;99.90
31747;DHT22;18319;48.974;8.462;2022-09-09T03:41:07;15.30;99.90
31747;DHT22;18319;48.974;8.462;2022-09-09T03:43:34;15.20;99.90
31747;DHT22;18319;48.974;8.462;2022-09-09T03:46:01;15.10;99.90
31747;DHT22;18319;48.974;8.462;2022-09-09T03:48:28;15.10;99.90
31747;DHT22;18319;48.974;8.462;2022-09-09T03:50:55;15.00;99.90
31747;DHT22;18319;48.974;8.462;2022-09-09T03:53:25;14.90;99.90
31747;DHT22;18319;48.974;8.462;2022-09-09T03:55:53;14.80;99.90
31747;DHT22;18319;48.974;8.462;2022-09-09T03:58:21;14.80;99.90
31747;DHT22;18319;48.974;8.462;2022-09-09T04:00:59;14.70;99.90
31747;DHT22;18319;48.974;8.462;2022-09-09T04:03:26;14.60;99.90
31747;DHT22;18319;48.974;8.462;2022-09-09T04:05:54;14.60;99.90
31747;DHT22;18319;48.974;8.462;2022-09-09T04:08:22;14.60;99.90
31747;DHT22;18319;48.974;8.462;2022-09-09T04:10:51;14.60;99.90
31747;DHT22;18319;48.974;8.462;2022-09-09T04:13:18;14.80;99.90
31747;DHT22;18319;48.974;8.462;2022-09-09T04:15:51;14.90;99.90
31747;DHT22;18319;48.974;8.462;2022-09-09T04:18:17;14.90;99.90
31747;DHT22;18319;48.974;8.462;2022-09-09T04:20:46;15.10;99.90
31747;DHT22;18319;48.974;8.462;2022-09-09T04:23:13;15.20;99.90
31747;DHT22;18319;48.974;8.462;2022-09-09T04:25:43;15.30;99.90
31747;DHT22;18319;48.974;8.462;2022-09-09T04:28:12;15.40;99.90
31747;DHT22;18319;48.974;8.462;2022-09-09T04:30:38;15.50;99.90
31747;DHT22;18319;48.974;8.462;2022-09-09T04:33:06;15.50;99.90
31747;DHT22;18319;48.974;8.462;2022-09-09T04:35:33;15.50;99.90
31747;DHT22;18319;48.974;8.462;2022-09-09T04:38:00;15.60;99.90
31747;DHT22;18319;48.974;8.462;2022-09-09T04:40:28;15.60;99.90
31747;DHT22;18319;48.974;8.462;2022-09-09T04:42:57;15.60;99.90
31747;DHT22;18319;48.974;8.462;2022-09-09T04:45:26;15.60;99.90
31747;DHT22;18319;48.974;8.462;2022-09-09T04:47:52;15.60;99.90
31747;DHT22;18319;48.974;8.462;2022-09-09T04:50:22;15.70;99.90
31747;DHT22;18319;48.974;8.462;2022-09-09T04:52:50;15.70;99.90
31747;DHT22;18319;48.974;8.462;2022-09-09T04:55:17;15.80;99.90
31747;DHT22;18319;48.974;8.462;2022-09-09T04:57:44;15.90;99.90
31747;DHT22;18319;48.974;8.462;2022-09-09T05:00:11;15.90;99.90
31747;DHT22;18319;48.974;8.462;2022-09-09T05:02:40;16.00;99.90
31747;DHT22;18319;48.974;8.462;2022-09-09T05:05:08;16.00;99.90
31747;DHT22;18319;48.974;8.462;2022-09-09T05:07:36;16.10;99.90
31747;DHT22;18319;48.974;8.462;2022-09-09T05:10:04;16.20;99.90
31747;DHT22;18319;48.974;8.462;2022-09-09T05:12:31;16.20;99.90
31747;DHT22;18319;48.974;8.462;2022-09-09T05:15:04;16.20;99.90
31747;DHT22;18319;48.974;8.462;2022-09-09T05:17:31;16.20;99.90
31747;DHT22;18319;48.974;8.462;2022-09-09T05:20:01;16.10;99.90
31747;DHT22;18319;48.974;8.462;2022-09-09T05:22:28;16.20;99.90
31747;DHT22;18319;48.974;8.462;2022-09-09T05:24:56;16.30;99.90
31747;DHT22;18319;48.974;8.462;2022-09-09T05:27:23;16.30;98.00
31747;DHT22;18319;48.974;8.462;2022-09-09T05:29:50;16.40;99.30
31747;DHT22;18319;48.974;8.462;2022-09-09T05:32:17;16.50;98.40
31747;DHT22;18319;48.974;8.462;2022-09-09T05:34:44;16.60;98.30
31747;DHT22;18319;48.974;8.462;2022-09-09T05:37:13;16.60;98.80
31747;DHT22;18319;48.974;8.462;2022-09-09T05:39:40;16.70;97.60
31747;DHT22;18319;48.974;8.462;2022-09-09T05:42:07;16.80;97.00
31747;DHT22;18319;48.974;8.462;2022-09-09T05:44:33;16.80;97.30
31747;DHT22;18319;48.974;8.462;2022-09-09T05:47:00;16.90;95.20
31747;DHT22;18319;48.974;8.462;2022-09-09T05:49:27;17.00;95.90
31747;DHT22;18319;48.974;8.462;2022-09-09T05:51:54;16.90;95.40
31747;DHT22;18319;48.974;8.462;2022-09-09T05:54:22;16.90;94.40
31747;DHT22;18319;48.974;8.462;2022-09-09T05:56:49;16.80;95.00
31747;DHT22;18319;48.974;8.462;2022-09-09T05:59:18;16.80;94.90
31747;DHT22;18319;48.974;8.462;2022-09-09T06:01:44;16.90;94.50
31747;DHT22;18319;48.974;8.462;2022-09-09T06:04:12;17.00;95.70
31747;DHT22;18319;48.974;8.462;2022-09-09T06:06:39;17.30;94.60
31747;DHT22;18319;48.974;8.462;2022-09-09T06:09:08;17.60;94.50
31747;DHT22;18319;48.974;8.462;2022-09-09T06:11:38;17.80;94.00
31747;DHT22;18319;48.974;8.462;2022-09-09T06:14:05;17.90;92.20
31747;DHT22;18319;48.974;8.462;2022-09-09T06:16:32;18.00;90.70
31747;DHT22;18319;48.974;8.462;2022-09-09T06:19:00;18.00;90.90
31747;DHT22;18319;48.974;8.462;2022-09-09T06:21:29;18.10;90.60
31747;DHT22;18319;48.974;8.462;2022-09-09T06:23:56;18.10;90.40
31747;DHT22;18319;48.974;8.462;2022-09-09T06:26:25;18.10;89.50
31747;DHT22;18319;48.974;8.462;2022-09-09T06:28:55;18.10;90.30
31747;DHT22;18319;48.974;8.462;2022-09-09T06:31:25;18.20;90.10
31747;DHT22;18319;48.974;8.462;2022-09-09T06:33:54;18.20;89.80
31747;DHT22;18319;48.974;8.462;2022-09-09T06:36:22;18.30;90.90
31747;DHT22;18319;48.974;8.462;2022-09-09T06:38:50;18.30;90.30
31747;DHT22;18319;48.974;8.462;2022-09-09T06:41:25;18.30;89.80
31747;DHT22;18319;48.974;8.462;2022-09-09T06:43:54;18.40;87.80
31747;DHT22;18319;48.974;8.462;2022-09-09T06:46:23;18.50;87.40
31747;DHT22;18319;48.974;8.462;2022-09-09T06:48:52;18.70;88.20
31747;DHT22;18319;48.974;8.462;2022-09-09T06:51:21;18.70;86.30
31747;DHT22;18319;48.974;8.462;2022-09-09T06:53:51;18.90;85.00
31747;DHT22;18319;48.974;8.462;2022-09-09T06:56:21;18.90;86.30
31747;DHT22;18319;48.974;8.462;2022-09-09T06:58:49;18.90;84.90
31747;DHT22;18319;48.974;8.462;2022-09-09T07:01:22;18.90;84.00
31747;DHT22;18319;48.974;8.462;2022-09-09T07:03:51;18.80;84.30
31747;DHT22;18319;48.974;8.462;2022-09-09T07:06:20;18.80;88.40
31747;DHT22;18319;48.974;8.462;2022-09-09T07:08:51;18.90;86.00
31747;DHT22;18319;48.974;8.462;2022-09-09T07:11:19;19.20;85.40
31747;DHT22;18319;48.974;8.462;2022-09-09T07:13:46;19.60;82.50
31747;DHT22;18319;48.974;8.462;2022-09-09T07:16:14;20.00;80.10
31747;DHT22;18319;48.974;8.462;2022-09-09T07:18:43;20.30;75.90
31747;DHT22;18319;48.974;8.462;2022-09-09T07:21:11;20.60;76.10
31747;DHT22;18319;48.974;8.462;2022-09-09T07:23:38;20.70;73.00
31747;DHT22;18319;48.974;8.462;2022-09-09T07:26:08;20.70;71.70
31747;DHT22;18319;48.974;8.462;2022-09-09T07:28:36;20.60;70.50
31747;DHT22;18319;48.974;8.462;2022-09-09T07:31:04;20.40;70.90
31747;DHT22;18319;48.974;8.462;2022-09-09T07:33:32;20.10;74.40
31747;DHT22;18319;48.974;8.462;2022-09-09T07:36:05;20.00;73.90
31747;DHT22;18319;48.974;8.462;2022-09-09T07:38:37;20.00;70.50
31747;DHT22;18319;48.974;8.462;2022-09-09T07:41:05;20.20;72.00
31747;DHT22;18319;48.974;8.462;2022-09-09T07:43:34;20.60;73.30
31747;DHT22;18319;48.974;8.462;2022-09-09T07:46:01;21.10;71.40
31747;DHT22;18319;48.974;8.462;2022-09-09T07:48:28;21.50;67.20
31747;DHT22;18319;48.974;8.462;2022-09-09T07:51:05;21.90;67.30
31747;DHT22;18319;48.974;8.462;2022-09-09T07:53:32;22.30;66.60
31747;DHT22;18319;48.974;8.462;2022-09-09T07:56:03;22.50;66.10
31747;DHT22;18319;48.974;8.462;2022-09-09T07:58:30;22.70;70.60
31747;DHT22;18319;48.974;8.462;2022-09-09T08:00:56;23.00;65.20
31747;DHT22;18319;48.974;8.462;2022-09-09T08:03:24;23.70;61.50
31747;DHT22;18319;48.974;8.462;2022-09-09T08:05:51;24.30;59.90
31747;DHT22;18319;48.974;8.462;2022-09-09T08:08:19;24.90;55.80
31747;DHT22;18319;48.974;8.462;2022-09-09T08:10:45;25.40;54.20
31747;DHT22;18319;48.974;8.462;2022-09-09T08:13:12;25.60;52.30
31747;DHT22;18319;48.974;8.462;2022-09-09T08:15:43;25.20;48.10
31747;DHT22;18319;48.974;8.462;2022-09-09T08:18:10;25.00;51.20
31747;DHT22;18319;48.974;8.462;2022-09-09T08:20:37;25.10;53.20
31747;DHT22;18319;48.974;8.462;2022-09-09T08:23:04;25.00;50.00
31747;DHT22;18319;48.974;8.462;2022-09-09T08:25:32;24.90;48.60
31747;DHT22;18319;48.974;8.462;2022-09-09T08:27:59;24.60;48.20
31747;DHT22;18319;48.974;8.462;2022-09-09T08:30:26;24.30;48.50
31747;DHT22;18319;48.974;8.462;2022-09-09T08:32:53;24.00;48.60
31747;DHT22;18319;48.974;8.462;2022-09-09T08:35:20;23.60;52.30
31747;DHT22;18319;48.974;8.462;2022-09-09T08:37:47;22.80;56.50
31747;DHT22;18319;48.974;8.462;2022-09-09T08:40:19;22.10;63.50
31747;DHT22;18319;48.974;8.462;2022-09-09T08:42:56;21.20;66.90
31747;DHT22;18319;48.974;8.462;2022-09-09T08:45:29;20.40;71.60
31747;DHT22;18319;48.974;8.462;2022-09-09T08:48:11;19.80;71.10
31747;DHT22;18319;48.974;8.462;2022-09-09T08:50:42;19.70;80.40
31747;DHT22;18319;48.974;8.462;2022-09-09T08:53:17;19.70;82.90
31747;DHT22;18319;48.974;8.462;2022-09-09T08:55:47;19.80;87.60
31747;DHT22;18319;48.974;8.462;2022-09-09T08:58:19;19.80;89.80
31747;DHT22;18319;48.974;8.462;2022-09-09T09:03:48;20.20;91.90
31747;DHT22;18319;48.974;8.462;2022-09-09T09:06:26;20.40;92.00
31747;DHT22;18319;48.974;8.462;2022-09-09T09:09:02;20.60;91.90
31747;DHT22;18319;48.974;8.462;2022-09-09T09:11:39;20.60;90.80
31747;DHT22;18319;48.974;8.462;2022-09-09T09:14:10;20.50;92.00
31747;DHT22;18319;48.974;8.462;2022-09-09T09:16:42;20.50;91.40
31747;DHT22;18319;48.974;8.462;2022-09-09T09:19:14;20.50;91.40
31747;DHT22;18319;48.974;8.462;2022-09-09T09:21:43;20.50;91.20
31747;DHT22;18319;48.974;8.462;2022-09-09T09:24:18;20.60;94.10
31747;DHT22;18319;48.974;8.462;2022-09-09T09:26:45;20.70;89.40
31747;DHT22;18319;48.974;8.462;2022-09-09T09:29:17;20.60;89.80
31747;DHT22;18319;48.974;8.462;2022-09-09T09:31:46;20.50;86.10
31747;DHT22;18319;48.974;8.462;2022-09-09T09:34:14;20.60;91.90
31747;DHT22;18319;48.974;8.462;2022-09-09T09:36:44;20.60;90.30
31747;DHT22;18319;48.974;8.462;2022-09-09T09:39:23;20.50;86.20
31747;DHT22;18319;48.974;8.462;2022-09-09T09:41:51;20.30;85.20
31747;DHT22;18319;48.974;8.462;2022-09-09T09:44:25;20.10;86.30
31747;DHT22;18319;48.974;8.462;2022-09-09T09:46:52;20.10;89.40
31747;DHT22;18319;48.974;8.462;2022-09-09T09:49:20;20.30;88.20
31747;DHT22;18319;48.974;8.462;2022-09-09T09:51:48;20.50;90.00
31747;DHT22;18319;48.974;8.462;2022-09-09T09:54:19;20.50;82.70
31747;DHT22;18319;48.974;8.462;2022-09-09T09:56:48;20.50;86.70
31747;DHT22;18319;48.974;8.462;2022-09-09T09:59:32;20.40;83.60
31747;DHT22;18319;48.974;8.462;2022-09-09T10:02:17;20.30;89.80
31747;DHT22;18319;48.974;8.462;2022-09-09T10:04:44;20.10;86.30
31747;DHT22;18319;48.974;8.462;2022-09-09T10:07:12;20.00;87.00
31747;DHT22;18319;48.974;8.462;2022-09-09T10:09:39;20.00;90.50
31747;DHT22;18319;48.974;8.462;2022-09-09T10:12:14;19.90;86.00
31747;DHT22;18319;48.974;8.462;2022-09-09T10:14:54;19.90;85.10
31747;DHT22;18319;48.974;8.462;2022-09-09T10:17:32;19.90;86.30
31747;DHT22;18319;48.974;8.462;2022-09-09T10:20:20;19.70;83.50
31747;DHT22;18319;48.974;8.462;2022-09-09T10:22:52;19.60;81.20
31747;DHT22;18319;48.974;8.462;2022-09-09T10:25:40;19.60;81.90
31747;DHT22;18319;48.974;8.462;2022-09-09T10:28:29;19.70;79.40
31747;DHT22;18319;48.974;8.462;2022-09-09T10:31:07;20.00;77.70
31747;DHT22;18319;48.974;8.462;2022-09-09T10:33:44;20.20;77.00
31747;DHT22;18319;48.974;8.462;2022-09-09T10:36:19;20.30;74.70
31747;DHT22;18319;48.974;8.462;2022-09-09T10:38:48;20.40;75.60
31747;DHT22;18319;48.974;8.462;2022-09-09T10:41:20;20.50;72.50
31747;DHT22;18319;48.974;8.462;2022-09-09T10:44:15;20.80;74.00
31747;DHT22;18319;48.974;8.462;2022-09-09T10:46:54;21.20;70.90
31747;DHT22;18319;48.974;8.462;2022-09-09T10:49:33;21.40;68.60
31747;DHT22;18319;48.974;8.462;2022-09-09T10:52:11;21.50;70.20
31747;DHT22;18319;48.974;8.462;2022-09-09T10:54:51;21.50;69.40
31747;DHT22;18319;48.974;8.462;2022-09-09T10:57:26;21.50;69.00
31747;DHT22;18319;48.974;8.462;2022-09-09T11:00:02;21.40;68.10
31747;DHT22;18319;48.974;8.462;2022-09-09T11:02:34;21.40;69.50
31747;DHT22;18319;48.974;8.462;2022-09-09T11:05:04;21.40;68.20
31747;DHT22;18319;48.974;8.462;2022-09-09T11:07:39;21.40;68.30
31747;DHT22;18319;48.974;8.462;2022-09-09T11:10:16;21.30;68.50
31747;DHT22;18319;48.974;8.462;2022-09-09T11:12:47;21.30;65.40
31747;DHT22;18319;48.974;8.462;2022-09-09T11:15:18;21.30;65.50
31747;DHT22;18319;48.974;8.462;2022-09-09T11:17:50;21.40;64.30
31747;DHT22;18319;48.974;8.462;2022-09-09T11:20:20;21.40;65.40
31747;DHT22;18319;48.974;8.462;2022-09-09T11:22:50;21.30;62.20
31747;DHT22;18319;48.974;8.462;2022-09-09T11:25:21;21.10;64.70
31747;DHT22;18319;48.974;8.462;2022-09-09T11:28:08;20.90;66.60
31747;DHT22;18319;48.974;8.462;2022-09-09T11:30:46;20.70;65.40
31747;DHT22;18319;48.974;8.462;2022-09-09T11:33:39;20.60;65.40
31747;DHT22;18319;48.974;8.462;2022-09-09T11:42:17;20.80;65.10
31747;DHT22;18319;48.974;8.462;2022-09-09T11:44:44;21.00;64.60
31747;DHT22;18319;48.974;8.462;2022-09-09T11:47:25;21.00;63.60
31747;DHT22;18319;48.974;8.462;2022-09-09T11:50:08;20.90;61.20
31747;DHT22;18319;48.974;8.462;2022-09-09T11:52:37;20.80;62.50
31747;DHT22;18319;48.974;8.462;2022-09-09T11:55:09;20.70;59.70
31747;DHT22;18319;48.974;8.462;2022-09-09T11:57:39;20.80;60.70
31747;DHT22;18319;48.974;8.462;2022-09-09T12:02:50;21.40;59.20
31747;DHT22;18319;48.974;8.462;2022-09-09T12:05:18;21.70;60.10
31747;DHT22;18319;48.974;8.462;2022-09-09T12:07:51;21.70;58.30
31747;DHT22;18319;48.974;8.462;2022-09-09T12:10:26;21.70;56.10
31747;DHT22;18319;48.974;8.462;2022-09-09T12:12:53;21.60;57.60
31747;DHT22;18319;48.974;8.462;2022-09-09T12:15:24;21.50;56.10
31747;DHT22;18319;48.974;8.462;2022-09-09T12:17:55;21.40;56.30
31747;DHT22;18319;48.974;8.462;2022-09-09T12:20:31;21.50;56.90
31747;DHT22;18319;48.974;8.462;2022-09-09T12:23:13;21.50;56.10
31747;DHT22;18319;48.974;8.462;2022-09-09T12:25:56;21.30;55.10
31747;DHT22;18319;48.974;8.462;2022-09-09T12:28:31;21.10;55.70
31747;DHT22;18319;48.974;8.462;2022-09-09T12:31:06;21.00;57.50
31747;DHT22;18319;48.974;8.462;2022-09-09T12:33:36;21.00;57.10
31747;DHT22;18319;48.974;8.462;2022-09-09T12:36:11;21.20;56.60
31747;DHT22;18319;48.974;8.462;2022-09-09T12:38:46;21.40;56.80
31747;DHT22;18319;48.974;8.462;2022-09-09T12:41:20;21.60;55.70
31747;DHT22;18319;48.974;8.462;2022-09-09T12:43:51;21.90;55.50
31747;DHT22;18319;48.974;8.462;2022-09-09T12:46:27;22.10;53.70
31747;DHT22;18319;48.974;8.462;2022-09-09T12:48:57;22.30;52.70
31747;DHT22;18319;48.974;8.462;2022-09-09T12:51:28;22.30;52.00
31747;DHT22;18319;48.974;8.462;2022-09-09T12:54:00;22.10;52.40
31747;DHT22;18319;48.974;8.462;2022-09-09T12:56:29;21.70;52.30
31747;DHT22;18319;48.974;8.462;2022-09-09T12:58:58;21.30;54.60
31747;DHT22;18319;48.974;8.462;2022-09-09T13:01:27;20.40;78.90
31747;DHT22;18319;48.974;8.462;2022-09-09T13:03:55;19.70;80.20
31747;DHT22;18319;48.974;8.462;2022-09-09T13:06:23;19.50;84.50
31747;DHT22;18319;48.974;8.462;2022-09-09T13:08:53;19.50;88.40
31747;DHT22;18319;48.974;8.462;2022-09-09T13:11:23;19.60;86.20
31747;DHT22;18319;48.974;8.462;2022-09-09T13:13:53;19.70;86.40
31747;DHT22;18319;48.974;8.462;2022-09-09T13:16:22;19.70;86.80
31747;DHT22;18319;48.974;8.462;2022-09-09T13:18:50;19.60;88.50
31747;DHT22;18319;48.974;8.462;2022-09-09T13:21:18;19.60;89.70
31747;DHT22;18319;48.974;8.462;2022-09-09T13:23:49;19.60;84.90
31747;DHT22;18319;48.974;8.462;2022-09-09T13:26:23;19.50;87.90
31747;DHT22;18319;48.974;8.462;2022-09-09T13:28:53;19.30;94.30
31747;DHT22;18319;48.974;8.462;2022-09-09T13:31:22;19.00;93.90
31747;DHT22;18319;48.974;8.462;2022-09-09T13:33:54;18.80;94.40
31747;DHT22;18319;48.974;8.462;2022-09-09T13:36:29;19.00;95.50
31747;DHT22;18319;48.974;8.462;2022-09-09T13:38:58;19.10;98.30
31747;DHT22;18319;48.974;8.462;2022-09-09T13:41:29;19.40;98.50
31747;DHT22;18319;48.974;8.462;2022-09-09T13:43:57;19.40;92.70
31747;DHT22;18319;48.974;8.462;2022-09-09T13:46:27;19.30;93.70
31747;DHT22;18319;48.974;8.462;2022-09-09T13:48:56;19.20;94.90
31747;DHT22;18319;48.974;8.462;2022-09-09T13:51:32;19.00;92.70
31747;DHT22;18319;48.974;8.462;2022-09-09T13:54:00;18.90;96.40
31747;DHT22;18319;48.974;8.462;2022-09-09T13:56:28;19.00;93.10
31747;DHT22;18319;48.974;8.462;2022-09-09T13:58:55;19.20;94.00
31747;DHT22;18319;48.974;8.462;2022-09-09T14:01:22;19.60;94.90
31747;DHT22;18319;48.974;8.462;2022-09-09T14:03:49;20.10;94.30
31747;DHT22;18319;48.974;8.462;2022-09-09T14:06:16;20.30;90.00
31747;DHT22;18319;48.974;8.462;2022-09-09T14:08:44;20.40;86.80
31747;DHT22;18319;48.974;8.462;2022-09-09T14:11:13;20.30;83.50
31747;DHT22;18319;48.974;8.462;2022-09-09T14:13:41;20.30;92.40
31747;DHT22;18319;48.974;8.462;2022-09-09T14:16:08;20.40;88.20
31747;DHT22;18319;48.974;8.462;2022-09-09T14:18:35;20.50;90.70
31747;DHT22;18319;48.974;8.462;2022-09-09T14:21:03;20.60;86.70
31747;DHT22;18319;48.974;8.462;2022-09-09T14:23:30;20.70;80.70
31747;DHT22;18319;48.974;8.462;2022-09-09T14:25:58;20.80;76.50
31747;DHT22;18319;48.974;8.462;2022-09-09T14:28:25;20.90;73.40
31747;DHT22;18319;48.974;8.462;2022-09-09T14:30:53;21.00;74.30
31747;DHT22;18319;48.974;8.462;2022-09-09T14:33:20;20.90;86.00
31747;DHT22;18319;48.974;8.462;2022-09-09T14:35:46;20.90;92.90
31747;DHT22;18319;48.974;8.462;2022-09-09T14:38:14;20.90;92.00
31747;DHT22;18319;48.974;8.462;2022-09-09T14:40:41;21.00;91.80
31747;DHT22;18319;48.974;8.462;2022-09-09T14:43:11;20.90;90.30
31747;DHT22;18319;48.974;8.462;2022-09-09T14:45:38;20.60;85.50
31747;DHT22;18319;48.974;8.462;2022-09-09T14:48:06;20.30;78.70
31747;DHT22;18319;48.974;8.462;2022-09-09T14:50:33;20.10;81.80
31747;DHT22;18319;48.974;8.462;2022-09-09T14:53:05;19.90;81.20
31747;DHT22;18319;48.974;8.462;2022-09-09T14:55:32;19.70;90.70
31747;DHT22;18319;48.974;8.462;2022-09-09T14:57:59;19.50;93.00
31747;DHT22;18319;48.974;8.462;2022-09-09T15:00:26;19.40;96.00
31747;DHT22;18319;48.974;8.462;2022-09-09T15:02:53;19.20;96.20
31747;DHT22;18319;48.974;8.462;2022-09-09T15:05:22;19.00;97.90
31747;DHT22;18319;48.974;8.462;2022-09-09T15:07:49;18.80;99.10
31747;DHT22;18319;48.974;8.462;2022-09-09T15:10:20;18.70;99.20
31747;DHT22;18319;48.974;8.462;2022-09-09T15:12:47;18.70;99.90
31747;DHT22;18319;48.974;8.462;2022-09-09T15:15:13;18.70;97.30
31747;DHT22;18319;48.974;8.462;2022-09-09T15:17:40;18.80;97.50
31747;DHT22;18319;48.974;8.462;2022-09-09T15:20:08;18.90;94.40
31747;DHT22;18319;48.974;8.462;2022-09-09T15:22:36;18.80;92.70
31747;DHT22;18319;48.974;8.462;2022-09-09T15:25:04;18.90;94.20
31747;DHT22;18319;48.974;8.462;2022-09-09T15:27:33;19.00;94.80
31747;DHT22;18319;48.974;8.462;2022-09-09T15:29:59;19.20;94.90
31747;DHT22;18319;48.974;8.462;2022-09-09T15:32:27;19.60;91.30
31747;DHT22;18319;48.974;8.462;2022-09-09T15:34:54;20.00;89.50
31747;DHT22;18319;48.974;8.462;2022-09-09T15:37:21;20.20;90.20
31747;DHT22;18319;48.974;8.462;2022-09-09T15:39:49;20.20;84.40
31747;DHT22;18319;48.974;8.462;2022-09-09T15:42:16;20.00;78.40
31747;DHT22;18319;48.974;8.462;2022-09-09T15:44:43;19.80;78.60
31747;DHT22;18319;48.974;8.462;2022-09-09T15:47:11;19.80;79.10
31747;DHT22;18319;48.974;8.462;2022-09-09T15:49:39;19.60;81.80
31747;DHT22;18319;48.974;8.462;2022-09-09T15:52:06;19.40;80.00
31747;DHT22;18319;48.974;8.462;2022-09-09T15:54:34;19.40;81.80
31747;DHT22;18319;48.974;8.462;2022-09-09T15:57:06;19.40;85.50
31747;DHT22;18319;48.974;8.462;2022-09-09T15:59:34;19.30;84.40
31747;DHT22;18319;48.974;8.462;2022-09-09T16:02:01;19.10;86.50
31747;DHT22;18319;48.974;8.462;2022-09-09T16:04:28;19.00;85.40
31747;DHT22;18319;48.974;8.462;2022-09-09T16:06:57;18.80;83.10